createdAt,value
2022-11-14T00:00:48.203Z,8.77
2022-11-14T00:03:33.788Z,8.88
2022-11-14T00:06:19.788Z,8.42
2022-11-14T00:09:05.741Z,8.84
2022-11-14T00:11:51.480Z,8.75
2022-11-14T00:14:37.396Z,8.40
2022-11-14T00:17:23.240Z,8.68
2022-11-14T00:20:10.292Z,9.00
2022-11-14T00:22:56.848Z,8.67
2022-11-14T00:25:43.919Z,8.86
2022-11-14T00:28:29.964Z,9.23
2022-11-14T00:31:16.439Z,9.28
2022-11-14T00:34:02.050Z,9.14
2022-11-14T00:36:47.652Z,9.36
2022-11-14T00:39:33.464Z,9.15
2022-11-14T00:42:19.093Z,9.09
2022-11-14T00:45:05.275Z,9.11
2022-11-14T00:47:51.078Z,9.03
2022-11-14T00:50:38.012Z,8.96
2022-11-14T00:53:23.781Z,8.84
2022-11-14T00:56:09.479Z,8.85
2022-11-14T00:58:55.319Z,9.28
2022-11-14T01:01:41.122Z,9.29
2022-11-14T01:04:26.664Z,9.38
2022-11-14T01:07:12.411Z,9.23
2022-11-14T01:09:58.013Z,9.12
2022-11-14T01:12:43.727Z,9.15
2022-11-14T01:15:29.483Z,9.29
2022-11-14T01:18:17.182Z,9.07
2022-11-14T01:21:07.046Z,8.35
2022-11-14T01:23:52.839Z,8.65
2022-11-14T01:26:38.535Z,8.55
2022-11-14T01:29:24.291Z,8.67
2022-11-14T01:32:10.424Z,9.10
2022-11-14T01:34:55.980Z,8.99
2022-11-14T01:37:41.732Z,8.47
2022-11-14T01:40:27.565Z,8.88
2022-11-14T01:43:19.601Z,9.19
2022-11-14T01:46:15.525Z,9.07
2022-11-14T01:49:21.660Z,8.92
2022-11-14T01:52:13.845Z,8.74
2022-11-14T01:55:01.338Z,8.79
2022-11-14T01:57:47.193Z,8.42
2022-11-14T02:00:33.060Z,8.43
2022-11-14T02:03:18.824Z,8.60
2022-11-14T02:06:04.696Z,8.88
2022-11-14T02:08:51.191Z,8.88
2022-11-14T02:11:38.249Z,9.16
2022-11-14T02:14:24.160Z,8.72
2022-11-14T02:17:39.950Z,8.73
2022-11-14T02:20:20.004Z,9.24
2022-11-14T02:23:05.959Z,8.71
2022-11-14T02:25:51.612Z,8.91
2022-11-14T02:28:37.288Z,8.94
2022-11-14T02:31:22.851Z,9.23
2022-11-14T02:34:08.710Z,8.97
2022-11-14T02:36:54.418Z,9.22
2022-11-14T02:39:40.804Z,9.27
2022-11-14T02:42:26.502Z,8.93
2022-11-14T02:45:12.215Z,9.11
2022-11-14T02:47:57.956Z,9.38
2022-11-14T02:50:43.889Z,9.39
2022-11-14T02:53:29.683Z,9.12
2022-11-14T02:56:15.380Z,9.16
2022-11-14T02:59:01.037Z,9.29
2022-11-14T03:01:46.863Z,9.57
2022-11-14T03:04:33.002Z,9.55
2022-11-14T03:07:18.800Z,9.76
2022-11-14T03:10:05.544Z,9.41
2022-11-14T03:12:55.072Z,9.28
2022-11-14T03:15:40.934Z,9.49
2022-11-14T03:18:26.734Z,9.43
2022-11-14T03:21:15.100Z,9.65
2022-11-14T03:24:01.084Z,9.55
2022-11-14T03:26:46.903Z,9.51
2022-11-14T03:29:32.640Z,9.69
2022-11-14T03:32:18.331Z,9.58
2022-11-14T03:35:04.405Z,9.19
2022-11-14T03:37:52.766Z,8.69
2022-11-14T03:40:41.676Z,8.65
2022-11-14T03:43:32.326Z,9.13
2022-11-14T03:46:18.400Z,9.40
2022-11-14T03:49:04.383Z,9.04
2022-11-14T03:51:50.746Z,9.09
2022-11-14T03:54:36.468Z,8.65
2022-11-14T03:57:22.103Z,9.24
2022-11-14T04:00:08.487Z,9.28
2022-11-14T04:02:57.111Z,8.90
2022-11-14T04:05:45.999Z,9.37
2022-11-14T04:08:32.381Z,8.97
2022-11-14T04:11:18.993Z,8.63
2022-11-14T04:14:04.792Z,8.77
2022-11-14T04:16:50.619Z,8.45
2022-11-14T04:19:36.497Z,7.93
2022-11-14T04:22:22.005Z,8.32
2022-11-14T04:25:08.683Z,8.41
2022-11-14T04:27:54.763Z,8.19
2022-11-14T04:30:40.402Z,8.12
2022-11-14T04:33:26.508Z,6.75
2022-11-14T04:36:12.352Z,7.11
2022-11-14T04:38:58.025Z,6.85
2022-11-14T04:41:43.772Z,7.47
2022-11-14T04:44:29.452Z,7.68
2022-11-14T04:47:15.200Z,6.99
2022-11-14T04:50:00.821Z,7.44
2022-11-14T04:52:46.400Z,7.69
2022-11-14T04:55:32.245Z,7.58
2022-11-14T04:58:17.792Z,7.74
2022-11-14T05:01:10.175Z,8.10
2022-11-14T05:03:56.181Z,8.32
2022-11-14T05:06:41.986Z,8.22
2022-11-14T05:09:29.112Z,7.98
2022-11-14T05:12:14.971Z,8.07
2022-11-14T05:15:00.630Z,8.41
2022-11-14T05:17:46.240Z,8.17
2022-11-14T05:20:32.143Z,8.39
2022-11-14T05:23:23.450Z,8.50
2022-11-14T05:26:10.883Z,8.46
2022-11-14T05:28:56.826Z,8.04
2022-11-14T05:31:42.578Z,8.08
2022-11-14T05:34:28.364Z,8.50
2022-11-14T05:37:14.196Z,8.07
2022-11-14T05:39:59.872Z,7.64
2022-11-14T05:42:45.573Z,7.98
2022-11-14T05:45:31.467Z,8.16
2022-11-14T05:48:17.062Z,8.35
2022-11-14T05:51:03.874Z,8.80
2022-11-14T05:53:49.913Z,8.60
2022-11-14T05:56:35.808Z,8.82
2022-11-14T05:59:21.905Z,8.93
2022-11-14T06:02:07.603Z,8.13
2022-11-14T06:04:54.005Z,8.63
2022-11-14T06:07:40.117Z,8.79
2022-11-14T06:10:26.112Z,8.36
2022-11-14T06:13:11.852Z,8.45
2022-11-14T06:16:04.572Z,8.76
2022-11-14T06:18:52.791Z,8.70
2022-11-14T06:21:38.851Z,8.95
2022-11-14T06:24:24.586Z,8.67
2022-11-14T06:27:10.298Z,8.52
2022-11-14T06:29:55.841Z,8.72
2022-11-14T06:32:41.637Z,8.86
2022-11-14T06:35:27.562Z,8.75
2022-11-14T06:38:13.446Z,8.72
2022-11-14T06:41:06.245Z,8.91
2022-11-14T06:43:55.449Z,8.69
2022-11-14T06:46:41.085Z,8.77
2022-11-14T06:49:27.863Z,8.85
2022-11-14T06:52:13.761Z,9.08
2022-11-14T06:54:59.435Z,8.88
2022-11-14T06:57:45.284Z,8.95
2022-11-14T07:00:31.336Z,9.24
2022-11-14T07:03:17.536Z,9.48
2022-11-14T07:06:03.768Z,9.45
2022-11-14T07:08:49.350Z,9.46
2022-11-14T07:11:35.074Z,9.72
2022-11-14T07:14:20.908Z,9.40
2022-11-14T07:17:06.899Z,9.15
2022-11-14T07:19:52.856Z,9.70
2022-11-14T07:22:38.840Z,9.70
2022-11-14T07:25:24.645Z,9.62
2022-11-14T07:28:10.545Z,9.68
2022-11-14T07:30:56.273Z,9.91
2022-11-14T07:33:41.997Z,10.05
2022-11-14T07:36:28.477Z,9.51
2022-11-14T07:39:14.490Z,9.30
2022-11-14T07:42:00.339Z,9.76
2022-11-14T07:44:46.142Z,10.03
2022-11-14T07:47:31.843Z,10.60
2022-11-14T07:50:20.572Z,10.49
2022-11-14T07:53:08.762Z,10.44
2022-11-14T07:55:57.102Z,10.55
2022-11-14T07:58:46.525Z,9.95
2022-11-14T08:01:32.892Z,9.81
2022-11-14T08:04:19.071Z,10.11
2022-11-14T08:07:04.821Z,10.50
2022-11-14T08:09:50.870Z,10.52
2022-11-14T08:12:38.565Z,10.66
2022-11-14T08:15:24.554Z,10.27
2022-11-14T08:18:10.641Z,10.42
2022-11-14T08:20:57.678Z,9.48
2022-11-14T08:23:45.318Z,9.66
2022-11-14T08:26:34.231Z,9.50
2022-11-14T08:29:21.077Z,9.97
2022-11-14T08:32:06.741Z,9.84
2022-11-14T08:34:52.559Z,9.24
2022-11-14T08:37:38.315Z,9.95
2022-11-14T08:40:24.010Z,10.35
2022-11-14T08:43:11.694Z,10.25
2022-11-14T08:46:02.236Z,9.69
2022-11-14T08:48:48.494Z,10.00
2022-11-14T08:51:36.443Z,9.32
2022-11-14T08:54:22.458Z,9.77
2022-11-14T08:57:08.336Z,9.68
2022-11-14T08:59:55.435Z,9.58
2022-11-14T09:02:41.476Z,10.31
2022-11-14T09:05:27.235Z,10.58
2022-11-14T09:08:13.062Z,9.77
2022-11-14T09:11:05.186Z,9.78
2022-11-14T09:13:51.959Z,10.19
2022-11-14T09:16:37.696Z,10.57
2022-11-14T09:19:23.508Z,10.68
2022-11-14T09:22:09.206Z,10.70
2022-11-14T09:24:55.113Z,9.85
2022-11-14T09:27:40.891Z,9.47
2022-11-14T09:30:26.484Z,10.35
2022-11-14T09:33:12.370Z,10.41
2022-11-14T09:36:02.275Z,10.63
2022-11-14T09:38:47.818Z,9.43
2022-11-14T09:41:49.250Z,10.68
2022-11-14T09:44:47.330Z,10.11
2022-11-14T09:47:44.448Z,10.22
2022-11-14T09:50:34.797Z,10.66
2022-11-14T09:53:26.339Z,10.19
2022-11-14T09:56:13.530Z,10.67
2022-11-14T09:58:59.350Z,10.80
2022-11-14T10:01:59.991Z,11.19
2022-11-14T10:05:00.027Z,11.51
2022-11-14T10:07:54.105Z,11.19
2022-11-14T10:10:49.279Z,10.93
2022-11-14T10:13:47.650Z,10.73
2022-11-14T10:16:54.654Z,10.89
2022-11-14T10:19:43.033Z,10.81
2022-11-14T10:23:09.167Z,10.66
2022-11-14T10:26:07.775Z,10.84
2022-11-14T10:29:08.463Z,11.12
2022-11-14T10:32:21.976Z,11.61
2022-11-14T10:35:28.718Z,11.51
2022-11-14T10:38:26.435Z,11.14
2022-11-14T10:41:28.477Z,10.68
2022-11-14T10:44:20.924Z,10.91
2022-11-14T10:47:08.943Z,11.26
2022-11-14T10:49:55.476Z,10.87
2022-11-14T10:52:41.831Z,10.92
2022-11-14T10:55:57.474Z,10.73
2022-11-14T10:58:47.319Z,11.43
2022-11-14T11:01:40.630Z,10.76
2022-11-14T11:04:30.543Z,10.86
2022-11-14T11:07:40.472Z,11.57
2022-11-14T11:10:45.312Z,12.09
2022-11-14T11:13:32.226Z,11.89
2022-11-14T11:16:20.357Z,11.39
2022-11-14T11:19:35.382Z,11.50
2022-11-14T11:22:24.068Z,11.32
2022-11-14T11:25:27.084Z,11.67
2022-11-14T11:28:17.890Z,12.20
2022-11-14T11:31:07.966Z,11.93
2022-11-14T11:33:53.765Z,11.71
2022-11-14T11:36:45.576Z,11.84
2022-11-14T11:39:33.423Z,12.12
2022-11-14T11:43:16.768Z,12.15
2022-11-14T11:45:39.398Z,11.66
2022-11-14T11:48:30.541Z,11.13
2022-11-14T11:51:17.844Z,11.82
2022-11-14T11:54:12.843Z,11.85
2022-11-14T11:57:00.997Z,12.01
2022-11-14T11:59:48.827Z,11.94
2022-11-14T12:02:34.921Z,12.16
2022-11-14T12:05:42.512Z,11.84
2022-11-14T12:09:03.955Z,12.41
2022-11-14T12:11:55.090Z,12.59
2022-11-14T12:14:59.928Z,12.27
2022-11-14T12:17:54.864Z,12.84
2022-11-14T12:21:09.979Z,12.79
2022-11-14T12:24:05.505Z,11.92
2022-11-14T12:26:54.365Z,11.40
2022-11-14T12:29:51.394Z,12.04
2022-11-14T12:32:39.968Z,11.68
2022-11-14T12:35:30.639Z,12.34
2022-11-14T12:38:20.615Z,12.77
2022-11-14T12:41:07.970Z,13.03
2022-11-14T12:43:53.943Z,12.76
2022-11-14T12:47:05.870Z,12.76
2022-11-14T12:49:52.676Z,13.02
2022-11-14T12:52:41.054Z,12.68
2022-11-14T12:55:26.788Z,12.84
2022-11-14T12:58:42.580Z,13.11
2022-11-14T13:01:28.736Z,13.04
2022-11-14T13:04:35.698Z,13.25
2022-11-14T13:07:53.972Z,12.91
2022-11-14T13:10:40.409Z,13.22
2022-11-14T13:13:44.710Z,13.35
2022-11-14T13:16:49.654Z,12.59
2022-11-14T13:19:54.112Z,12.77
2022-11-14T13:22:41.096Z,12.66
2022-11-14T13:25:27.273Z,13.07
2022-11-14T13:28:37.974Z,13.16
2022-11-14T13:31:25.477Z,12.92
2022-11-14T13:34:30.404Z,13.19
2022-11-14T13:37:40.438Z,12.14
2022-11-14T13:40:38.235Z,12.51
2022-11-14T13:43:33.266Z,13.32
2022-11-14T13:46:25.484Z,12.53
2022-11-14T13:49:29.666Z,12.51
2022-11-14T13:52:15.634Z,12.37
2022-11-14T13:55:01.560Z,12.81
2022-11-14T13:58:06.949Z,12.91
2022-11-14T14:00:59.535Z,12.57
2022-11-14T14:04:01.527Z,12.55
2022-11-14T14:07:26.276Z,12.78
2022-11-14T14:10:47.755Z,13.02
2022-11-14T14:14:04.682Z,13.16
2022-11-14T14:16:58.680Z,12.78
2022-11-14T14:19:51.670Z,13.11
2022-11-14T14:22:52.944Z,13.27
2022-11-14T14:25:58.712Z,13.16
2022-11-14T14:28:50.347Z,13.02
2022-11-14T14:31:40.426Z,13.27
2022-11-14T14:34:30.205Z,13.08
2022-11-14T14:37:26.116Z,13.12
2022-11-14T14:40:22.482Z,13.15
2022-11-14T14:43:12.641Z,13.32
2022-11-14T14:45:58.707Z,13.12
2022-11-14T14:48:44.632Z,13.10
2022-11-14T14:51:34.987Z,13.20
2022-11-14T14:54:25.446Z,13.12
2022-11-14T14:57:17.141Z,12.90
2022-11-14T15:00:08.325Z,12.96
2022-11-14T15:02:54.585Z,12.75
2022-11-14T15:05:40.233Z,12.66
2022-11-14T15:08:25.911Z,12.79
2022-11-14T15:11:12.472Z,12.79
2022-11-14T15:13:58.557Z,12.61
2022-11-14T15:16:45.204Z,12.46
2022-11-14T15:19:37.701Z,12.45
2022-11-14T15:22:25.066Z,12.35
2022-11-14T15:25:10.683Z,12.38
2022-11-14T15:28:00.209Z,12.23
2022-11-14T15:30:59.544Z,12.26
2022-11-14T15:33:45.311Z,12.29
2022-11-14T15:36:30.977Z,11.90
2022-11-14T15:39:27.553Z,12.13
2022-11-14T15:42:28.317Z,12.10
2022-11-14T15:45:27.915Z,12.12
2022-11-14T15:48:15.720Z,11.90
2022-11-14T15:51:01.446Z,11.73
2022-11-14T15:53:49.145Z,11.46
2022-11-14T15:56:35.252Z,11.57
2022-11-14T15:59:21.215Z,11.88
2022-11-14T16:02:13.040Z,11.65
2022-11-14T16:04:59.150Z,11.69
2022-11-14T16:07:44.894Z,11.66
2022-11-14T16:10:30.697Z,11.54
2022-11-14T16:13:16.392Z,11.52
2022-11-14T16:16:02.188Z,11.61
2022-11-14T16:18:47.841Z,11.57
2022-11-14T16:21:33.572Z,11.55
2022-11-14T16:24:21.671Z,11.43
2022-11-14T16:27:07.445Z,11.44
2022-11-14T16:29:53.667Z,11.40
2022-11-14T16:32:40.326Z,11.34
2022-11-14T16:35:26.439Z,11.39
2022-11-14T16:38:12.774Z,11.33
2022-11-14T16:41:00.380Z,11.13
2022-11-14T16:43:46.399Z,10.92
2022-11-14T16:46:32.216Z,10.84
2022-11-14T16:49:19.567Z,11.01
2022-11-14T16:52:08.559Z,11.05
2022-11-14T16:54:54.499Z,10.99
2022-11-14T16:57:40.401Z,10.71
2022-11-14T17:00:26.080Z,10.73
2022-11-14T17:03:11.985Z,10.70
2022-11-14T17:05:57.922Z,10.81
2022-11-14T17:08:43.605Z,10.70
2022-11-14T17:11:29.410Z,10.63
2022-11-14T17:14:15.315Z,10.57
2022-11-14T17:17:03.946Z,10.36
2022-11-14T17:19:50.027Z,10.49
2022-11-14T17:22:35.815Z,10.69
2022-11-14T17:25:21.501Z,10.78
2022-11-14T17:28:07.387Z,10.73
2022-11-14T17:30:53.045Z,10.73
2022-11-14T17:33:38.668Z,10.80
2022-11-14T17:36:26.153Z,10.78
2022-11-14T17:39:12.011Z,10.66
2022-11-14T17:41:57.660Z,10.75
2022-11-14T17:44:43.398Z,10.56
2022-11-14T17:47:29.192Z,10.59
2022-11-14T17:50:15.257Z,10.25
2022-11-14T17:53:01.133Z,10.51
2022-11-14T17:55:46.896Z,10.46
2022-11-14T17:58:33.209Z,10.43
2022-11-14T18:01:21.200Z,10.40
2022-11-14T18:04:07.283Z,10.51
2022-11-14T18:06:53.309Z,10.24
2022-11-14T18:09:39.216Z,10.12
2022-11-14T18:12:25.080Z,10.38
2022-11-14T18:15:10.872Z,10.27
2022-11-14T18:17:56.465Z,10.25
2022-11-14T18:20:42.161Z,10.00
2022-11-14T18:23:27.875Z,10.02
2022-11-14T18:26:15.576Z,9.97
2022-11-14T18:29:02.327Z,10.14
2022-11-14T18:31:48.481Z,10.19
2022-11-14T18:34:37.003Z,9.76
2022-11-14T18:37:23.242Z,10.01
2022-11-14T18:40:16.150Z,10.05
2022-11-14T18:43:02.712Z,10.09
2022-11-14T18:45:48.398Z,10.06
2022-11-14T18:48:37.840Z,9.99
2022-11-14T18:51:26.519Z,9.81
2022-11-14T18:54:13.460Z,10.18
2022-11-14T18:57:00.192Z,9.98
2022-11-14T18:59:45.828Z,9.62
2022-11-14T19:02:31.590Z,9.91
2022-11-14T19:05:17.752Z,9.89
2022-11-14T19:08:05.257Z,9.85
2022-11-14T19:10:51.118Z,9.84
2022-11-14T19:13:36.947Z,9.72
2022-11-14T19:16:23.021Z,9.92
2022-11-14T19:19:09.050Z,9.86
2022-11-14T19:21:55.185Z,9.88
2022-11-14T19:24:43.085Z,9.83
2022-11-14T19:27:28.738Z,9.88
2022-11-14T19:30:16.490Z,9.98
2022-11-14T19:33:03.344Z,10.00
2022-11-14T19:35:48.952Z,9.92
2022-11-14T19:38:34.720Z,9.72
2022-11-14T19:41:20.757Z,9.32
2022-11-14T19:44:06.549Z,9.50
2022-11-14T19:46:52.486Z,9.72
2022-11-14T19:49:38.256Z,9.47
2022-11-14T19:52:23.949Z,9.62
2022-11-14T19:55:09.675Z,9.52
2022-11-14T19:57:55.422Z,9.33
2022-11-14T20:00:41.237Z,9.59
2022-11-14T20:03:27.086Z,9.60
2022-11-14T20:06:21.753Z,9.74
2022-11-14T20:09:08.895Z,9.76
2022-11-14T20:11:54.655Z,9.48
2022-11-14T20:14:40.230Z,9.20
2022-11-14T20:17:25.961Z,9.50
2022-11-14T20:20:11.581Z,9.73
2022-11-14T20:22:57.229Z,9.74
2022-11-14T20:25:43.242Z,9.76
2022-11-14T20:28:28.964Z,9.10
2022-11-14T20:31:16.345Z,9.52
2022-11-14T20:34:01.994Z,9.33
2022-11-14T20:37:09.773Z,9.32
2022-11-14T20:39:53.328Z,9.38
2022-11-14T20:42:39.022Z,8.89
2022-11-14T20:45:24.959Z,9.37
2022-11-14T20:48:10.544Z,9.18
2022-11-14T20:51:12.878Z,8.93
2022-11-14T20:53:58.604Z,9.12
2022-11-14T20:56:44.679Z,9.24
2022-11-14T20:59:30.723Z,9.17
2022-11-14T21:02:16.442Z,9.21
2022-11-14T21:05:02.647Z,9.18
2022-11-14T21:07:48.236Z,9.19
2022-11-14T21:10:45.777Z,9.21
2022-11-14T21:13:50.366Z,9.24
2022-11-14T21:16:38.628Z,9.29
2022-11-14T21:19:25.323Z,9.19
2022-11-14T21:22:10.912Z,8.97
2022-11-14T21:24:56.787Z,8.80
2022-11-14T21:27:42.674Z,8.75
2022-11-14T21:30:31.038Z,8.74
2022-11-14T21:33:16.891Z,8.95
2022-11-14T21:36:29.678Z,8.83
2022-11-14T21:39:15.036Z,8.64
2022-11-14T21:42:01.465Z,8.84
2022-11-14T21:44:47.006Z,8.97
2022-11-14T21:47:33.717Z,8.82
2022-11-14T21:50:19.611Z,8.74
2022-11-14T21:53:15.891Z,8.86
2022-11-14T21:56:15.578Z,8.76
2022-11-14T21:59:14.238Z,8.57
2022-11-14T22:02:19.163Z,8.63
2022-11-14T22:05:05.164Z,8.75
2022-11-14T22:07:51.015Z,8.84
2022-11-14T22:10:36.761Z,8.68
2022-11-14T22:13:22.453Z,8.82
2022-11-14T22:16:08.722Z,8.58
2022-11-14T22:18:54.618Z,8.69
2022-11-14T22:21:40.464Z,8.81
2022-11-14T22:24:26.501Z,8.67
2022-11-14T22:27:12.208Z,8.80
2022-11-14T22:29:58.074Z,8.72
2022-11-14T22:32:43.747Z,8.71
2022-11-14T22:35:29.456Z,8.47
2022-11-14T22:38:15.652Z,8.98
2022-11-14T22:41:01.633Z,8.51
2022-11-14T22:43:47.751Z,8.93
2022-11-14T22:46:33.529Z,9.00
2022-11-14T22:49:21.243Z,9.02
2022-11-14T22:52:07.392Z,8.98
2022-11-14T22:54:53.135Z,9.27
2022-11-14T22:57:38.651Z,8.95
2022-11-14T23:00:25.437Z,8.70
2022-11-14T23:03:13.034Z,8.94
2022-11-14T23:06:06.683Z,8.82
2022-11-14T23:08:52.730Z,8.66
2022-11-14T23:11:38.815Z,8.67
2022-11-14T23:14:24.531Z,8.98
2022-11-14T23:17:10.112Z,9.20
2022-11-14T23:19:56.417Z,8.65
2022-11-14T23:22:41.962Z,8.78
2022-11-14T23:25:27.733Z,8.80
2022-11-14T23:28:13.450Z,9.00
2022-11-14T23:30:59.413Z,9.32
2022-11-14T23:33:52.614Z,9.08
2022-11-14T23:36:38.454Z,8.99
2022-11-14T23:39:24.208Z,8.98
2022-11-14T23:42:09.911Z,9.21
2022-11-14T23:44:55.897Z,9.28
2022-11-14T23:47:41.573Z,8.75
2022-11-14T23:50:27.307Z,9.17
2022-11-14T23:53:13.324Z,8.43
2022-11-14T23:56:00.041Z,8.47
2022-11-14T23:58:45.814Z,8.84
